Time;durP1;ratioP1;P1;durP2;ratioP2;P2;SDS_P1;SDS_P2;PMS_P1;PMS_P2;Temp;Humidity;BMP_temperature;BMP_pressure;BME280_temperature;BME280_humidity;BME280_pressure;Samples;Min_cycle;Max_cycle;Signal;HPM_P1;HPM_P2
2021/12/10 00:00:27;;;;;;;43.20;28.47;;;5.50;91.80;;;;;;4955972;28;20286;-69
2021/12/10 00:02:54;;;;;;;44.20;27.97;;;5.40;91.80;;;;;;4955373;29;20208;-69
2021/12/10 00:05:34;;;;;;;41.97;26.50;;;5.40;91.80;;;;;;4955989;28;20219;-69
2021/12/10 00:08:03;;;;;;;44.60;28.70;;;5.40;91.80;;;;;;4955828;29;20209;-69
2021/12/10 00:10:35;;;;;;;44.60;28.33;;;5.40;91.80;;;;;;4955434;28;20291;-69
2021/12/10 00:13:04;;;;;;;45.40;28.10;;;5.30;91.90;;;;;;4955366;29;20202;-69
2021/12/10 00:15:32;;;;;;;40.73;27.80;;;5.30;91.70;;;;;;4961322;28;20302;-69
2021/12/10 00:18:03;;;;;;;46.60;28.37;;;5.30;91.80;;;;;;4956165;28;20228;-69
2021/12/10 00:20:32;;;;;;;46.43;27.87;;;5.20;91.70;;;;;;4954906;29;20229;-69
2021/12/10 00:23:13;;;;;;;46.83;28.57;;;5.20;91.80;;;;;;4955940;28;20327;-69
2021/12/10 00:25:48;;;;;;;48.03;27.70;;;5.20;91.80;;;;;;4953904;29;20694;-69
2021/12/10 00:28:24;;;;;;;42.20;26.77;;;5.10;91.90;;;;;;4970091;28;20315;-69
2021/12/10 00:31:13;;;;;;;42.10;27.83;;;5.10;91.90;;;;;;4938219;29;20211;-69
2021/12/10 00:33:47;;;;;;;42.70;27.07;;;5.10;91.90;;;;;;4953707;28;20287;-69
2021/12/10 00:36:14;;;;;;;41.53;28.07;;;5.00;91.80;;;;;;4955551;28;20645;-69
2021/12/10 00:38:42;;;;;;;38.57;27.37;;;5.00;91.90;;;;;;4955958;28;20216;-69
2021/12/10 00:41:10;;;;;;;41.40;26.57;;;5.00;91.90;;;;;;4954192;28;20208;-69
2021/12/10 00:43:39;;;;;;;43.93;27.60;;;5.00;92.00;;;;;;4955681;29;20547;-69
2021/12/10 00:46:06;;;;;;;35.87;25.13;;;5.00;91.90;;;;;;4955429;28;20291;-69
2021/12/10 00:48:34;;;;;;;42.13;28.37;;;4.90;91.90;;;;;;4944008;28;20272;-69
2021/12/10 00:51:05;;;;;;;43.87;27.40;;;4.90;91.90;;;;;;4955371;28;20213;-69
2021/12/10 00:53:34;;;;;;;42.77;27.60;;;4.80;91.90;;;;;;4956070;28;20676;-69
2021/12/10 00:56:03;;;;;;;40.00;26.50;;;4.80;92.00;;;;;;4972186;28;20229;-69
2021/12/10 00:58:31;;;;;;;41.97;27.87;;;4.70;91.90;;;;;;4959255;28;20212;-69
2021/12/10 01:01:11;;;;;;;43.97;27.67;;;4.70;91.90;;;;;;4956970;29;20309;-69
2021/12/10 01:03:47;;;;;;;45.20;28.70;;;4.60;91.90;;;;;;4958383;29;20203;-69
2021/12/10 01:06:17;;;;;;;44.30;27.27;;;4.60;91.90;;;;;;4958802;28;20234;-69
2021/12/10 01:08:48;;;;;;;47.10;27.97;;;4.50;91.90;;;;;;4959257;28;20255;-69
2021/12/10 01:11:31;;;;;;;42.43;27.70;;;4.50;91.90;;;;;;4973722;28;20703;-69
2021/12/10 01:14:12;;;;;;;40.20;25.87;;;4.50;91.90;;;;;;4957735;29;20621;-69
2021/12/10 01:27:33;;;;;;;42.50;27.30;;;4.20;92.00;;;;;;4971461;28;20330;-69
2021/12/10 01:30:04;;;;;;;44.87;27.40;;;4.20;92.00;;;;;;4958520;29;20211;-69
2021/12/10 01:32:36;;;;;;;42.17;28.00;;;4.10;92.10;;;;;;4957395;29;20212;-69
2021/12/10 01:35:06;;;;;;;43.57;27.90;;;4.10;92.10;;;;;;4971459;28;20249;-69
2021/12/10 01:37:34;;;;;;;43.17;27.67;;;4.00;92.10;;;;;;4957437;28;20220;-69
2021/12/10 01:40:05;;;;;;;45.93;28.60;;;4.00;92.10;;;;;;4954958;29;20207;-69
2021/12/10 01:42:47;;;;;;;39.93;27.53;;;3.90;92.00;;;;;;4957218;29;20215;-69
2021/12/10 01:45:23;;;;;;;52.07;29.70;;;3.90;92.10;;;;;;4955523;29;20297;-69
2021/12/10 01:48:02;;;;;;;46.33;27.97;;;3.80;92.10;;;;;;4956902;29;20284;-70
2021/12/10 01:50:30;;;;;;;46.23;30.10;;;3.80;92.20;;;;;;4957235;29;20633;-69
2021/12/10 01:53:03;;;;;;;49.60;28.47;;;3.70;92.20;;;;;;4958585;28;20221;-69
2021/12/10 01:55:32;;;;;;;45.90;28.70;;;3.70;92.30;;;;;;4957568;29;20297;-69
2021/12/10 01:58:00;;;;;;;45.03;29.43;;;3.70;92.30;;;;;;4965631;28;20717;-69
2021/12/10 02:00:32;;;;;;;48.20;29.13;;;3.70;92.30;;;;;;4957815;28;20306;-69
2021/12/10 02:03:00;;;;;;;51.77;30.07;;;3.60;92.30;;;;;;4957222;29;20213;-69
2021/12/10 02:05:28;;;;;;;52.20;31.17;;;3.60;92.30;;;;;;4958802;28;20742;-69
2021/12/10 02:07:58;;;;;;;52.57;31.70;;;3.60;92.30;;;;;;4956353;29;20235;-69
2021/12/10 02:10:28;;;;;;;47.47;29.07;;;3.60;92.40;;;;;;4956898;29;20233;-69
2021/12/10 02:12:57;;;;;;;49.10;30.33;;;3.60;92.50;;;;;;4958370;28;20694;-69
2021/12/10 02:15:27;;;;;;;48.83;29.00;;;3.60;92.50;;;;;;4956611;29;20213;-69
2021/12/10 02:17:58;;;;;;;51.10;29.23;;;3.50;92.50;;;;;;4957148;29;20660;-69
2021/12/10 02:20:34;;;;;;;45.60;28.40;;;3.50;92.50;;;;;;4957617;28;20209;-69
2021/12/10 02:23:05;;;;;;;44.73;27.43;;;3.50;92.50;;;;;;4956950;29;20292;-69
2021/12/10 02:25:37;;;;;;;49.20;29.07;;;3.50;92.50;;;;;;4954138;29;20220;-69
2021/12/10 02:28:10;;;;;;;48.23;28.77;;;3.50;92.50;;;;;;4957107;29;20759;-69
2021/12/10 02:30:39;;;;;;;45.73;28.87;;;3.50;92.40;;;;;;4970819;28;20242;-69
2021/12/10 02:33:07;;;;;;;44.00;28.33;;;3.40;92.40;;;;;;4956955;29;20650;-69
2021/12/10 02:35:34;;;;;;;45.30;28.70;;;3.40;92.40;;;;;;4954020;29;20208;-69
2021/12/10 02:38:02;;;;;;;46.40;27.57;;;3.40;92.30;;;;;;4952328;29;20298;-69
2021/12/10 02:40:31;;;;;;;46.03;28.37;;;3.30;92.40;;;;;;4955471;28;20214;-69
2021/12/10 02:43:09;;;;;;;47.07;29.87;;;3.30;92.40;;;;;;4949666;28;20241;-69
2021/12/10 02:45:37;;;;;;;48.07;28.53;;;3.30;92.50;;;;;;4955528;29;20263;-69
2021/12/10 02:48:05;;;;;;;46.60;28.57;;;3.30;92.60;;;;;;4956199;29;20265;-69
2021/12/10 02:50:34;;;;;;;48.87;29.17;;;3.30;92.60;;;;;;4956817;28;20670;-69
2021/12/10 02:53:02;;;;;;;48.17;28.03;;;3.30;92.60;;;;;;4961006;28;20318;-69
2021/12/10 02:55:31;;;;;;;49.20;29.53;;;3.30;92.60;;;;;;4956689;28;20210;-69
2021/12/10 02:58:05;;;;;;;49.50;28.33;;;3.30;92.70;;;;;;4956028;29;20212;-69
2021/12/10 03:00:42;;;;;;;45.53;28.63;;;3.30;92.70;;;;;;4957059;28;20288;-69
2021/12/10 03:03:09;;;;;;;41.27;26.70;;;3.30;92.70;;;;;;4963344;28;20210;-69
2021/12/10 03:05:37;;;;;;;43.43;25.93;;;3.30;92.70;;;;;;4952275;29;20236;-69
2021/12/10 03:08:04;;;;;;;43.43;26.43;;;3.30;92.70;;;;;;4955997;29;20299;-69
2021/12/10 03:10:33;;;;;;;47.73;27.67;;;3.20;92.60;;;;;;4955914;29;20294;-69
2021/12/10 03:13:00;;;;;;;44.03;28.07;;;3.20;92.60;;;;;;4957216;28;20198;-69
2021/12/10 03:15:30;;;;;;;40.60;26.80;;;3.20;92.60;;;;;;4956577;28;20223;-69
2021/12/10 03:17:59;;;;;;;46.90;27.93;;;3.20;92.60;;;;;;4954365;28;20214;-69
2021/12/10 03:20:29;;;;;;;42.13;25.87;;;3.20;92.70;;;;;;4956458;28;20223;-69
2021/12/10 03:22:59;;;;;;;41.47;26.30;;;3.20;92.70;;;;;;4954153;29;20247;-69
2021/12/10 03:25:27;;;;;;;49.10;28.60;;;3.20;92.70;;;;;;4955753;28;20545;-69
2021/12/10 03:27:54;;;;;;;46.57;27.70;;;3.20;92.80;;;;;;4956739;29;20285;-69
2021/12/10 03:30:29;;;;;;;50.27;28.43;;;3.20;92.70;;;;;;4956415;28;20206;-69
2021/12/10 03:32:57;;;;;;;43.47;28.13;;;3.20;92.80;;;;;;4955038;29;20203;-69
2021/12/10 03:35:31;;;;;;;43.50;27.67;;;3.20;92.80;;;;;;4955307;28;20307;-69
2021/12/10 03:38:01;;;;;;;46.33;28.70;;;3.20;92.80;;;;;;4954633;29;20537;-69
2021/12/10 03:40:29;;;;;;;42.50;26.80;;;3.20;92.90;;;;;;4954448;29;20214;-69
2021/12/10 03:42:58;;;;;;;47.03;28.47;;;3.20;92.90;;;;;;4968887;28;20608;-69
2021/12/10 03:45:33;;;;;;;45.77;28.10;;;3.20;92.90;;;;;;4956013;28;20678;-69
2021/12/10 03:48:06;;;;;;;41.43;26.47;;;3.20;92.90;;;;;;4954015;29;20309;-69
2021/12/10 03:50:33;;;;;;;41.83;26.53;;;3.20;92.80;;;;;;4955855;29;20217;-69
2021/12/10 03:53:01;;;;;;;44.80;26.53;;;3.20;92.70;;;;;;4955481;29;20524;-69
2021/12/10 03:55:28;;;;;;;46.53;27.40;;;3.20;92.60;;;;;;4955941;28;20202;-69
2021/12/10 03:57:57;;;;;;;45.73;27.63;;;3.10;92.50;;;;;;4952590;29;20590;-69
2021/12/10 04:00:28;;;;;;;40.33;26.03;;;3.10;92.50;;;;;;4955981;29;20210;-69
2021/12/10 04:02:56;;;;;;;44.33;27.23;;;3.00;92.60;;;;;;4955977;29;20294;-69
2021/12/10 04:05:24;;;;;;;45.70;28.20;;;3.00;92.60;;;;;;4956013;28;20265;-69
2021/12/10 04:07:53;;;;;;;45.73;27.67;;;3.00;92.70;;;;;;4955066;29;20229;-68
2021/12/10 04:10:25;;;;;;;42.83;26.60;;;3.00;92.70;;;;;;4952706;29;20206;-69
2021/12/10 04:12:53;;;;;;;43.93;27.63;;;3.00;92.70;;;;;;4955231;29;20214;-69
2021/12/10 04:15:22;;;;;;;44.37;26.37;;;3.00;92.70;;;;;;4955199;29;20224;-69
2021/12/10 04:17:53;;;;;;;47.47;27.60;;;3.00;92.70;;;;;;4956211;28;20297;-69
2021/12/10 04:20:22;;;;;;;45.10;27.97;;;3.00;92.60;;;;;;4950818;29;20220;-69
2021/12/10 04:22:51;;;;;;;44.13;27.87;;;3.00;92.70;;;;;;4955973;28;20682;-69
2021/12/10 04:25:21;;;;;;;41.73;27.73;;;3.00;92.70;;;;;;4954066;29;20210;-69
2021/12/10 04:27:49;;;;;;;42.20;26.53;;;2.90;92.70;;;;;;4954855;28;20233;-69
2021/12/10 04:30:17;;;;;;;41.83;26.30;;;3.00;92.70;;;;;;4958680;29;20548;-69
2021/12/10 04:32:45;;;;;;;46.07;26.10;;;3.00;92.70;;;;;;4958683;28;20218;-69
2021/12/10 04:35:14;;;;;;;40.47;25.67;;;2.90;92.70;;;;;;4959813;28;20233;-69
2021/12/10 04:37:42;;;;;;;44.97;27.70;;;2.90;92.50;;;;;;4958799;29;20285;-69
2021/12/10 04:40:16;;;;;;;45.23;27.27;;;2.90;92.40;;;;;;4959177;28;20214;-69
2021/12/10 04:42:44;;;;;;;44.03;27.27;;;2.90;92.50;;;;;;4957832;28;20717;-69
2021/12/10 04:45:14;;;;;;;44.40;26.60;;;2.80;92.50;;;;;;4947634;29;20717;-69
2021/12/10 04:47:41;;;;;;;40.17;24.10;;;2.80;92.60;;;;;;4959413;28;20301;-69
2021/12/10 04:50:10;;;;;;;42.23;25.57;;;2.80;92.40;;;;;;4959628;28;20237;-69
2021/12/10 04:52:38;;;;;;;43.03;25.80;;;2.80;92.30;;;;;;4957797;29;20281;-69
2021/12/10 04:55:10;;;;;;;41.87;26.00;;;2.70;92.20;;;;;;4973149;28;20586;-69
2021/12/10 04:57:38;;;;;;;44.63;26.23;;;2.70;92.20;;;;;;4956950;29;20241;-69
2021/12/10 05:00:09;;;;;;;45.00;26.33;;;2.70;92.40;;;;;;4959488;28;20222;-69
2021/12/10 05:02:37;;;;;;;39.53;24.37;;;2.60;92.50;;;;;;4956068;29;20305;-69
2021/12/10 05:05:07;;;;;;;41.20;26.57;;;2.60;92.50;;;;;;4957401;29;20721;-69
2021/12/10 05:07:37;;;;;;;37.57;24.17;;;2.60;92.50;;;;;;4958153;29;20269;-69
2021/12/10 05:10:07;;;;;;;45.57;26.83;;;2.60;92.60;;;;;;4958271;29;20199;-69
2021/12/10 05:12:35;;;;;;;38.70;24.73;;;2.60;92.60;;;;;;4958960;29;20214;-69
2021/12/10 05:15:06;;;;;;;44.87;25.87;;;2.60;92.60;;;;;;4959238;28;20237;-69
2021/12/10 05:17:34;;;;;;;41.73;27.10;;;2.60;92.70;;;;;;4958817;28;20257;-69
2021/12/10 05:20:13;;;;;;;41.67;26.17;;;2.60;92.70;;;;;;4959098;28;20207;-69
2021/12/10 05:22:44;;;;;;;44.00;26.03;;;2.50;92.60;;;;;;4957390;29;20241;-69
2021/12/10 05:25:12;;;;;;;44.13;26.00;;;2.50;92.90;;;;;;4957807;28;20308;-69
2021/12/10 05:27:39;;;;;;;44.63;25.67;;;2.50;92.60;;;;;;4955389;29;20677;-69
2021/12/10 05:30:09;;;;;;;44.07;26.60;;;2.50;92.50;;;;;;4947927;28;20341;-69
2021/12/10 05:32:37;;;;;;;48.20;27.73;;;2.40;92.60;;;;;;4956990;28;20210;-69
2021/12/10 05:35:06;;;;;;;42.27;27.00;;;2.50;92.70;;;;;;4955087;28;20301;-69
2021/12/10 05:37:33;;;;;;;41.73;26.63;;;2.50;92.80;;;;;;4946993;28;20213;-69
2021/12/10 05:40:01;;;;;;;37.07;25.50;;;2.50;92.90;;;;;;4957063;28;20296;-69
2021/12/10 05:42:28;;;;;;;42.40;26.03;;;2.50;92.90;;;;;;4957446;28;20604;-69
2021/12/10 05:44:56;;;;;;;41.83;26.03;;;2.50;92.90;;;;;;4956854;28;20285;-69
2021/12/10 05:47:23;;;;;;;40.00;25.50;;;2.50;92.80;;;;;;4956161;29;20218;-69
2021/12/10 05:49:51;;;;;;;40.00;25.10;;;2.50;92.80;;;;;;4971384;28;20284;-69
2021/12/10 05:52:19;;;;;;;36.63;24.17;;;2.50;92.80;;;;;;4955137;29;20261;-69
2021/12/10 05:54:46;;;;;;;44.70;26.80;;;2.50;92.70;;;;;;4957308;29;20206;-69
2021/12/10 05:57:14;;;;;;;43.93;25.63;;;2.50;92.70;;;;;;4957637;28;20202;-69
2021/12/10 05:59:41;;;;;;;40.27;26.47;;;2.50;92.70;;;;;;4957077;29;20284;-69
2021/12/10 06:02:09;;;;;;;40.37;24.30;;;2.50;92.50;;;;;;4957155;28;20249;-68
2021/12/10 06:04:37;;;;;;;41.17;25.63;;;2.40;92.50;;;;;;4957361;29;20206;-68
2021/12/10 06:07:05;;;;;;;40.07;24.33;;;2.40;92.50;;;;;;4957208;29;20322;-68
2021/12/10 06:09:33;;;;;;;39.87;25.43;;;2.40;92.60;;;;;;4956013;29;20203;-68
2021/12/10 06:12:01;;;;;;;39.37;26.03;;;2.40;92.70;;;;;;4957148;28;20216;-68
2021/12/10 06:14:28;;;;;;;37.23;24.50;;;2.30;92.70;;;;;;4956148;28;20305;-68
2021/12/10 06:16:56;;;;;;;42.40;26.13;;;2.40;92.80;;;;;;4956742;29;20222;-68
2021/12/10 06:19:23;;;;;;;41.77;25.83;;;2.40;92.70;;;;;;4955849;29;20215;-68
2021/12/10 06:21:52;;;;;;;42.53;26.13;;;2.30;92.60;;;;;;4954772;29;20213;-68
2021/12/10 06:24:20;;;;;;;40.47;26.10;;;2.30;92.70;;;;;;4909578;28;1380461;-68
2021/12/10 06:26:48;;;;;;;40.93;24.53;;;2.30;92.70;;;;;;4958000;28;20215;-68
2021/12/10 06:29:16;;;;;;;40.27;26.87;;;2.30;92.80;;;;;;4957725;29;20309;-68
2021/12/10 06:31:43;;;;;;;44.23;26.63;;;2.30;92.90;;;;;;4946614;28;20229;-68
2021/12/10 06:34:11;;;;;;;45.40;26.37;;;2.40;92.90;;;;;;4957059;28;20212;-68
2021/12/10 06:36:38;;;;;;;42.83;26.67;;;2.40;92.90;;;;;;4958066;28;20212;-68
2021/12/10 06:39:07;;;;;;;48.60;27.17;;;2.40;92.80;;;;;;4956448;28;20225;-68
2021/12/10 06:41:34;;;;;;;45.77;26.97;;;2.40;92.80;;;;;;4955123;29;20253;-68
2021/12/10 06:44:04;;;;;;;42.27;25.50;;;2.40;92.90;;;;;;4957886;28;20206;-68
2021/12/10 06:46:33;;;;;;;43.47;26.03;;;2.40;92.90;;;;;;4956724;29;20268;-68
2021/12/10 06:49:02;;;;;;;45.60;26.47;;;2.40;92.80;;;;;;4957626;28;20316;-68
2021/12/10 06:51:29;;;;;;;41.20;25.17;;;2.50;92.80;;;;;;4956519;28;20285;-68
2021/12/10 06:53:57;;;;;;;41.87;25.00;;;2.40;92.80;;;;;;4956800;29;20607;-68
2021/12/10 06:56:25;;;;;;;43.87;26.13;;;2.40;92.80;;;;;;4957410;28;20209;-69
2021/12/10 06:58:52;;;;;;;42.60;25.60;;;2.50;92.80;;;;;;4957401;28;20377;-69
2021/12/10 07:01:24;;;;;;;42.93;26.53;;;2.50;92.70;;;;;;4957089;28;20218;-69
2021/12/10 07:03:53;;;;;;;44.93;26.90;;;2.40;92.70;;;;;;4956635;29;20202;-69
2021/12/10 07:06:23;;;;;;;40.27;26.93;;;2.50;92.80;;;;;;4956870;29;20269;-69
2021/12/10 07:08:51;;;;;;;45.80;27.33;;;2.50;92.80;;;;;;4957163;28;20217;-69
2021/12/10 07:11:20;;;;;;;40.97;26.30;;;2.60;92.90;;;;;;4944329;29;20294;-69
2021/12/10 07:13:51;;;;;;;45.93;25.50;;;2.60;92.80;;;;;;4954326;29;20214;-69
2021/12/10 07:16:22;;;;;;;42.57;25.47;;;2.60;92.80;;;;;;4970117;28;20236;-69
2021/12/10 07:18:51;;;;;;;43.73;25.80;;;2.60;92.90;;;;;;4955825;29;20210;-69
2021/12/10 07:21:19;;;;;;;36.17;23.33;;;2.60;92.80;;;;;;4968142;28;20311;-69
2021/12/10 07:23:46;;;;;;;46.63;27.63;;;2.60;92.80;;;;;;4954348;29;20570;-69
2021/12/10 07:26:14;;;;;;;44.23;26.17;;;2.60;93.00;;;;;;4954529;28;20209;-69
2021/12/10 07:28:42;;;;;;;37.37;24.23;;;2.60;92.60;;;;;;4956641;28;20312;-69
2021/12/10 07:31:11;;;;;;;44.30;26.17;;;2.60;92.70;;;;;;4953630;29;20683;-69
2021/12/10 07:33:39;;;;;;;39.50;25.50;;;2.70;92.70;;;;;;4955449;28;20216;-69
2021/12/10 07:36:07;;;;;;;40.77;26.43;;;2.70;92.70;;;;;;4962786;28;20217;-69
2021/12/10 07:38:35;;;;;;;42.10;25.13;;;2.70;92.60;;;;;;4953372;29;20296;-69
2021/12/10 07:41:04;;;;;;;44.83;26.47;;;2.80;92.80;;;;;;4954516;28;20225;-69
2021/12/10 07:43:31;;;;;;;39.57;25.87;;;2.80;92.80;;;;;;4961870;28;20321;-69
2021/12/10 07:45:59;;;;;;;38.27;24.77;;;2.90;93.00;;;;;;4950751;29;20630;-69
2021/12/10 07:48:28;;;;;;;37.83;24.43;;;3.00;92.80;;;;;;4951864;29;20301;-69
2021/12/10 07:51:06;;;;;;;43.13;26.60;;;3.00;92.80;;;;;;4966773;28;20243;-69
2021/12/10 07:53:34;;;;;;;40.93;26.43;;;3.10;92.80;;;;;;4971248;28;20636;-69
2021/12/10 07:56:04;;;;;;;43.50;26.37;;;3.20;92.70;;;;;;4954703;28;20203;-69
2021/12/10 07:58:33;;;;;;;45.50;26.13;;;3.20;92.50;;;;;;4955376;28;20301;-69
2021/12/10 08:01:06;;;;;;;39.83;25.07;;;3.30;92.40;;;;;;4954855;28;20218;-68
2021/12/10 08:03:34;;;;;;;47.00;28.10;;;3.30;92.20;;;;;;4954404;28;20253;-68
2021/12/10 08:06:04;;;;;;;37.07;25.10;;;3.30;92.30;;;;;;4950744;29;20238;-68
2021/12/10 08:08:31;;;;;;;43.00;26.90;;;3.40;92.40;;;;;;4954769;29;20241;-68
2021/12/10 08:11:02;;;;;;;38.93;26.50;;;3.40;92.40;;;;;;4953700;28;20202;-68
2021/12/10 08:13:30;;;;;;;39.23;26.13;;;3.40;92.40;;;;;;4955500;29;20640;-69
2021/12/10 08:15:58;;;;;;;43.57;26.17;;;3.50;92.50;;;;;;4953055;29;20204;-68
2021/12/10 08:18:28;;;;;;;42.73;26.43;;;3.60;92.60;;;;;;4954827;29;20220;-68
2021/12/10 08:20:57;;;;;;;44.13;28.27;;;3.70;92.60;;;;;;4949698;28;20655;-68
2021/12/10 08:23:25;;;;;;;43.67;27.07;;;3.80;92.60;;;;;;4959127;29;20254;-69
2021/12/10 08:25:52;;;;;;;39.43;27.10;;;3.80;92.50;;;;;;4960088;29;20237;-69
2021/12/10 08:28:24;;;;;;;38.87;26.23;;;3.90;92.30;;;;;;4955484;29;20596;-68
2021/12/10 08:31:03;;;;;;;44.80;27.97;;;3.90;92.20;;;;;;4975616;23;20250;-82
2021/12/10 08:42:52;;;;;;;;;;;;;;;;;;;;;
2021/12/10 08:59:36;;;;;;;;;;;;;;;;;;;;;
2021/12/10 09:03:33;;;;;;;52.50;29.10;;;3.90;91.70;;;;;;4859029;29;20225;-82
2021/12/10 09:30:55;;;;;;;48.10;31.57;;;3.50;92.30;;;;;;4937287;29;20239;-69
2021/12/10 09:33:22;;;;;;;52.43;30.83;;;3.50;92.40;;;;;;4938746;29;20215;-69
2021/12/10 09:35:50;;;;;;;54.90;33.03;;;3.50;92.60;;;;;;4925570;29;20274;-69
2021/12/10 09:38:20;;;;;;;55.17;32.50;;;3.50;92.70;;;;;;4938330;29;20218;-69
2021/12/10 09:40:52;;;;;;;50.37;30.47;;;3.50;92.80;;;;;;4921759;29;20297;-70
2021/12/10 09:43:21;;;;;;;51.07;32.27;;;3.60;93.00;;;;;;4938377;29;20541;-70
2021/12/10 09:45:49;;;;;;;55.40;34.43;;;3.60;93.10;;;;;;4922701;29;20215;-69
2021/12/10 09:48:18;;;;;;;55.70;33.90;;;3.70;93.00;;;;;;4939809;29;20251;-70
2021/12/10 09:51:12;;;;;;;53.97;33.40;;;3.70;93.10;;;;;;4922888;29;20559;-69
2021/12/10 09:53:46;;;;;;;52.40;33.47;;;3.70;93.10;;;;;;4923095;29;20208;-69
2021/12/10 09:56:22;;;;;;;54.13;33.97;;;3.80;93.10;;;;;;4922668;29;20222;-69
2021/12/10 09:58:53;;;;;;;57.47;36.17;;;3.80;93.10;;;;;;4939002;29;20202;-69
2021/12/10 10:01:31;;;;;;;52.93;32.33;;;3.90;93.30;;;;;;4938752;29;20221;-69
2021/12/10 10:04:04;;;;;;;51.17;34.97;;;3.90;93.30;;;;;;4939417;29;20222;-69
2021/12/10 10:06:36;;;;;;;54.73;35.63;;;3.90;93.00;;;;;;4936577;29;20272;-68
2021/12/10 10:09:09;;;;;;;53.30;34.20;;;4.00;93.10;;;;;;4936410;29;20306;-68
2021/12/10 10:11:56;;;;;;;51.70;32.77;;;4.00;92.90;;;;;;4936301;28;20644;-68
2021/12/10 10:14:25;;;;;;;54.40;33.23;;;4.00;92.60;;;;;;4938050;29;20265;-68
2021/12/10 10:16:53;;;;;;;56.80;34.93;;;4.00;92.60;;;;;;4938671;29;20624;-68
2021/12/10 10:19:21;;;;;;;69.67;37.50;;;3.90;92.80;;;;;;4939074;29;20207;-68
2021/12/10 10:21:53;;;;;;;55.87;35.30;;;3.90;92.80;;;;;;4934568;29;20692;-69
2021/12/10 10:24:23;;;;;;;51.43;31.63;;;3.90;93.10;;;;;;4938104;29;20233;-69
2021/12/10 10:27:01;;;;;;;52.43;33.67;;;3.90;93.00;;;;;;4936812;29;20516;-69
2021/12/10 10:29:32;;;;;;;56.77;33.03;;;3.90;93.00;;;;;;4937759;29;20640;-69
2021/12/10 10:32:49;;;;;;;48.33;32.37;;;3.90;93.20;;;;;;4939040;29;20289;-69
2021/12/10 10:35:45;;;;;;;47.43;32.20;;;3.90;93.00;;;;;;4936354;29;20482;-69
2021/12/10 10:38:14;;;;;;;47.77;31.27;;;4.00;92.90;;;;;;4936578;29;20237;-69
2021/12/10 10:40:46;;;;;;;52.73;32.10;;;4.00;92.50;;;;;;4937712;29;20306;-69
2021/12/10 10:43:14;;;;;;;61.77;35.77;;;3.90;92.70;;;;;;4938121;28;20667;-69
2021/12/10 10:45:44;;;;;;;52.60;32.37;;;3.80;92.80;;;;;;4921663;29;20214;-69
2021/12/10 10:48:13;;;;;;;53.57;35.50;;;3.80;93.00;;;;;;4918926;29;20309;-69
2021/12/10 10:51:07;;;;;;;53.40;34.33;;;3.80;93.10;;;;;;4938387;29;20204;-69
2021/12/10 10:53:45;;;;;;;54.57;35.13;;;3.80;93.30;;;;;;4938641;29;20226;-69
2021/12/10 10:56:36;;;;;;;48.50;33.27;;;3.90;93.60;;;;;;4934984;29;20213;-69
2021/12/10 10:59:13;;;;;;;52.83;33.07;;;4.00;93.50;;;;;;4936841;29;20298;-69
2021/12/10 11:01:48;;;;;;;46.20;32.00;;;4.00;93.20;;;;;;4937494;29;20222;-69
2021/12/10 11:04:44;;;;;;;48.73;31.73;;;4.00;93.10;;;;;;4937611;29;20532;-69
2021/12/10 11:07:17;;;;;;;54.37;31.87;;;4.10;93.20;;;;;;4937217;28;20226;-69
2021/12/10 11:10:01;;;;;;;48.27;31.50;;;4.10;93.00;;;;;;4937559;28;20817;-69
2021/12/10 11:12:35;;;;;;;49.73;30.40;;;4.10;93.10;;;;;;4937164;28;20210;-69
2021/12/10 11:15:13;;;;;;;41.77;29.40;;;4.20;93.00;;;;;;4938612;29;20232;-69
2021/12/10 11:17:51;;;;;;;43.50;28.87;;;4.30;92.90;;;;;;4937195;29;20266;-69
2021/12/10 11:20:22;;;;;;;42.67;30.07;;;4.30;92.70;;;;;;4936499;29;20332;-69
2021/12/10 11:22:57;;;;;;;43.80;29.60;;;4.30;92.70;;;;;;4935553;29;20647;-69
2021/12/10 11:25:50;;;;;;;51.40;31.17;;;4.30;92.90;;;;;;4921877;29;20287;-69
2021/12/10 11:28:28;;;;;;;51.23;31.73;;;4.30;93.10;;;;;;4936794;29;20618;-69
2021/12/10 11:31:18;;;;;;;42.43;27.60;;;4.40;93.20;;;;;;4912944;29;20237;-69
2021/12/10 11:33:49;;;;;;;44.50;29.60;;;4.50;92.90;;;;;;4928960;29;20205;-69
2021/12/10 11:36:23;;;;;;;40.27;29.43;;;4.50;92.80;;;;;;4929055;29;20301;-69
2021/12/10 11:38:56;;;;;;;42.30;29.33;;;4.50;92.80;;;;;;4928720;29;20221;-69
2021/12/10 11:41:30;;;;;;;43.27;30.17;;;4.50;93.00;;;;;;4912819;29;20720;-69
2021/12/10 11:44:07;;;;;;;50.33;29.97;;;4.60;93.00;;;;;;4927271;29;20220;-69
2021/12/10 11:46:48;;;;;;;47.33;30.40;;;4.60;92.50;;;;;;4928836;29;20252;-69
2021/12/10 11:49:21;;;;;;;41.77;29.67;;;4.60;92.60;;;;;;4927692;29;20244;-69
2021/12/10 11:52:00;;;;;;;40.67;28.90;;;4.60;92.80;;;;;;4912148;29;20236;-69
2021/12/10 11:54:40;;;;;;;45.63;28.93;;;4.70;92.90;;;;;;4896970;29;20218;-69
2021/12/10 11:57:27;;;;;;;43.00;30.27;;;4.70;92.90;;;;;;4896188;29;20308;-69
2021/12/10 11:59:56;;;;;;;47.37;30.37;;;4.70;92.80;;;;;;4895832;29;20578;-69
2021/12/10 12:02:33;;;;;;;46.17;32.60;;;4.70;92.80;;;;;;4909668;29;20218;-69
2021/12/10 12:05:09;;;;;;;46.13;31.60;;;4.80;92.90;;;;;;4912832;29;20212;-69
2021/12/10 12:07:40;;;;;;;46.10;31.20;;;4.80;92.90;;;;;;4926399;29;20217;-69
2021/12/10 12:10:23;;;;;;;43.60;31.33;;;4.80;93.00;;;;;;4912427;29;20553;-69
2021/12/10 12:13:11;;;;;;;43.90;30.33;;;4.80;93.10;;;;;;4911825;29;20213;-69
2021/12/10 12:16:00;;;;;;;45.27;31.20;;;4.90;93.10;;;;;;4927300;29;20206;-69
2021/12/10 12:18:35;;;;;;;50.93;32.03;;;4.90;93.10;;;;;;4913127;29;20211;-69
2021/12/10 12:27:08;;;;;;;47.03;31.33;;;5.00;93.10;;;;;;4912422;29;20208;-68
2021/12/10 12:33:09;;;;;;;48.13;32.60;;;5.10;93.50;;;;;;4994547;28;20213;-92
2021/12/10 12:35:39;;;;;;;48.13;32.10;;;5.10;93.70;;;;;;4995659;28;20233;-92
2021/12/10 12:38:17;;;;;;;46.57;32.00;;;5.20;93.80;;;;;;5005393;28;20644;-92
2021/12/10 12:41:08;;;;;;;51.97;33.13;;;5.20;93.80;;;;;;5048335;28;20242;-94
2021/12/10 12:43:46;;;;;;;48.13;33.40;;;5.20;93.70;;;;;;5017664;28;20178;-95
2021/12/10 12:47:05;;;;;;;46.43;32.50;;;5.30;93.80;;;;;;5015279;28;20201;-94
2021/12/10 12:49:56;;;;;;;46.70;31.00;;;5.20;93.80;;;;;;5035049;28;20210;-94
2021/12/10 12:52:37;;;;;;;43.63;30.53;;;5.30;93.80;;;;;;5006208;28;20211;-96
2021/12/10 12:55:36;;;;;;;46.53;32.53;;;5.30;93.80;;;;;;5006320;28;20190;-95
2021/12/10 12:58:10;;;;;;;49.83;33.03;;;5.30;93.90;;;;;;4990696;28;20187;-96
2021/12/10 13:01:11;;;;;;;50.27;32.63;;;5.40;93.90;;;;;;4992943;28;20222;-95
2021/12/10 13:03:57;;;;;;;51.87;32.80;;;5.40;94.00;;;;;;5006153;28;20180;-95
2021/12/10 13:06:54;;;;;;;50.93;32.97;;;5.40;94.00;;;;;;5006119;28;20171;-94
2021/12/10 13:09:37;;;;;;;48.10;32.33;;;5.50;94.10;;;;;;5005907;28;20235;-95
2021/12/10 13:12:16;;;;;;;46.50;31.67;;;5.50;94.10;;;;;;5006059;28;20183;-96
2021/12/10 13:14:58;;;;;;;51.67;34.10;;;5.60;94.20;;;;;;4990728;28;20221;-96
2021/12/10 13:17:38;;;;;;;53.00;36.40;;;5.60;94.10;;;;;;5005932;28;20188;-96
2021/12/10 13:20:20;;;;;;;54.33;33.97;;;5.60;94.20;;;;;;5021094;28;20183;-96
2021/12/10 13:22:51;;;;;;;51.10;34.47;;;5.60;94.20;;;;;;5005698;28;20216;-96
2021/12/10 13:25:23;;;;;;;55.53;35.33;;;5.60;94.30;;;;;;5005791;28;20175;-95
2021/12/10 13:28:04;;;;;;;58.10;35.83;;;5.70;94.40;;;;;;4991360;28;20181;-95
2021/12/10 13:30:42;;;;;;;56.23;35.13;;;5.60;94.40;;;;;;5005283;28;20221;-93
2021/12/10 13:33:17;;;;;;;50.47;32.73;;;5.70;94.50;;;;;;5005659;28;20199;-93
2021/12/10 13:35:46;;;;;;;56.47;33.10;;;5.70;94.60;;;;;;5003983;28;20241;-94
2021/12/10 13:38:16;;;;;;;47.93;33.27;;;5.70;94.80;;;;;;4984518;28;20247;-93
2021/12/10 13:40:44;;;;;;;54.23;33.80;;;5.80;94.90;;;;;;5002379;28;20206;-95
2021/12/10 13:43:15;;;;;;;50.40;33.10;;;5.80;94.90;;;;;;5002179;28;20253;-93
2021/12/10 13:45:48;;;;;;;59.23;33.67;;;5.80;94.90;;;;;;4998230;28;20202;-92
2021/12/10 13:48:18;;;;;;;53.80;35.33;;;5.90;95.20;;;;;;5045324;28;20190;-94
2021/12/10 13:50:55;;;;;;;55.20;34.87;;;5.90;95.20;;;;;;5033495;28;20307;-93
2021/12/10 13:53:26;;;;;;;53.40;34.90;;;5.90;95.40;;;;;;5034115;28;20230;-93
2021/12/10 13:55:56;;;;;;;57.47;35.03;;;5.90;95.60;;;;;;5006566;28;20209;-95
2021/12/10 13:58:33;;;;;;;59.67;36.00;;;5.90;95.60;;;;;;5021110;28;20202;-95
2021/12/10 14:01:14;;;;;;;60.00;34.93;;;5.90;95.60;;;;;;5021139;28;20192;-95
2021/12/10 14:04:02;;;;;;;56.13;33.37;;;5.90;95.70;;;;;;5037345;28;20184;-94
2021/12/10 14:06:55;;;;;;;56.17;35.10;;;6.00;95.80;;;;;;5020259;28;20194;-94
2021/12/10 14:09:48;;;;;;;57.43;34.63;;;6.00;95.80;;;;;;5003758;28;20227;-94
2021/12/10 14:12:47;;;;;;;56.90;34.07;;;6.00;95.80;;;;;;5021146;28;20188;-96
2021/12/10 14:15:25;;;;;;;51.40;31.27;;;6.00;95.90;;;;;;5036790;28;20210;-96